Time;durP1;ratioP1;P1;durP2;ratioP2;P2;SDS_P1;SDS_P2;PMS_P1;PMS_P2;Temp;Humidity;BMP_temperature;BMP_pressure;BME280_temperature;BME280_humidity;BME280_pressure;Samples;Min_cycle;Max_cycle;Signal;HPM_P1;HPM_P2
2021/12/06 00:01:20;;;;;;;33.10;20.57;;;;;;;6.04;73.25;100620.25;2073305;28;20504;-62
2021/12/06 00:02:24;;;;;;;31.05;19.35;;;;;;;6.01;73.03;100621.84;2072753;28;20172;-61
2021/12/06 00:03:51;;;;;;;33.20;20.65;;;;;;;5.61;72.21;100550.94;2081031;28;20183;-62
2021/12/06 00:04:53;;;;;;;30.50;19.63;;;;;;;6.10;72.68;100626.94;2074313;28;20193;-61
2021/12/06 00:05:54;;;;;;;30.48;19.45;;;;;;;6.08;72.73;100621.81;2073069;28;20218;-62
2021/12/06 00:07:01;;;;;;;29.67;19.37;;;;;;;6.10;72.22;100624.19;2073049;28;20178;-61
2021/12/06 00:08:03;;;;;;;30.95;19.20;;;;;;;5.89;72.08;100592.06;2073242;28;20278;-61
2021/12/06 00:09:08;;;;;;;32.15;19.52;;;;;;;6.11;71.93;100620.25;2072523;28;20176;-62
2021/12/06 00:10:10;;;;;;;30.33;18.65;;;;;;;6.12;72.61;100617.09;2072536;28;20176;-62
2021/12/06 00:11:11;;;;;;;32.15;20.23;;;;;;;6.11;72.56;100609.25;2072706;28;20267;-62
2021/12/06 00:12:14;;;;;;;29.48;18.77;;;;;;;6.14;71.99;100613.91;2073169;28;20176;-62
2021/12/06 00:13:14;;;;;;;28.67;18.70;;;;;;;6.14;72.74;100620.22;2073211;28;20180;-61
2021/12/06 00:14:15;;;;;;;28.80;18.27;;;;;;;5.07;72.45;100444.44;2072858;28;20242;-61
2021/12/06 00:15:16;;;;;;;29.03;18.77;;;;;;;6.11;72.30;100603.72;2073322;28;20627;-62
2021/12/06 00:16:20;;;;;;;27.90;19.33;;;;;;;6.00;72.18;100605.78;2072799;28;20777;-61
2021/12/06 00:17:21;;;;;;;30.50;19.40;;;;;;;5.92;72.57;100607.78;2073414;28;20196;-61
2021/12/06 00:18:22;;;;;;;30.13;19.02;;;;;;;4.77;72.50;100418.69;2072692;28;20181;-62
2021/12/06 00:19:22;;;;;;;28.30;18.20;;;;;;;6.01;72.81;100615.59;2072870;28;20268;-61
2021/12/06 00:20:23;;;;;;;29.53;18.70;;;;;;;6.04;71.79;100612.81;2080439;28;20609;-62
2021/12/06 00:21:25;;;;;;;29.30;17.87;;;;;;;5.89;72.50;100608.56;2080739;28;20199;-61
2021/12/06 00:22:25;;;;;;;30.30;19.20;;;;;;;6.02;72.30;100650.16;2073085;28;20181;-62
2021/12/06 00:23:27;;;;;;;30.47;18.90;;;;;;;6.09;72.70;100623.38;2073380;28;20233;-62
2021/12/06 00:24:28;;;;;;;27.20;18.38;;;;;;;6.11;72.09;100623.00;2072726;28;20264;-62
2021/12/06 00:25:28;;;;;;;28.73;17.70;;;;;;;6.15;72.47;100621.00;2073260;28;20185;-61
2021/12/06 00:26:29;;;;;;;25.43;17.27;;;;;;;6.17;71.99;100643.38;2072646;28;20260;-62
2021/12/06 00:27:30;;;;;;;27.60;17.93;;;;;;;6.18;72.21;100632.00;2073151;28;20182;-62
2021/12/06 00:28:31;;;;;;;27.42;17.45;;;;;;;5.31;71.98;100487.50;2072651;28;20177;-62
2021/12/06 00:29:31;;;;;;;29.90;18.13;;;;;;;5.40;71.85;100509.03;2072675;28;20609;-62
2021/12/06 00:30:32;;;;;;;28.67;18.53;;;;;;;5.94;72.29;100599.13;2073018;28;20263;-62
2021/12/06 00:31:34;;;;;;;28.80;18.77;;;;;;;5.70;71.86;100595.25;2073280;28;20256;-62
2021/12/06 00:32:35;;;;;;;28.35;17.67;;;;;;;5.73;72.63;100579.94;2072997;28;20177;-62
2021/12/06 00:33:35;;;;;;;28.63;17.97;;;;;;;5.32;71.99;100515.72;2073299;28;20197;-62
2021/12/06 00:34:37;;;;;;;27.27;17.63;;;;;;;5.87;71.90;100623.91;2072450;28;20191;-61
2021/12/06 00:35:38;;;;;;;27.88;17.08;;;;;;;5.90;72.09;100601.09;2072683;28;20200;-61
2021/12/06 00:36:41;;;;;;;28.57;18.63;;;;;;;5.95;72.16;100603.44;2072605;28;20182;-61
2021/12/06 00:37:52;;;;;;;25.52;16.52;;;;;;;6.01;71.87;100608.09;2072977;28;20178;-62
2021/12/06 00:38:54;;;;;;;27.10;17.63;;;;;;;5.41;72.18;100518.84;2072306;28;20158;-62
2021/12/06 00:40:00;;;;;;;27.00;17.60;;;;;;;5.84;72.30;100577.97;2073077;28;20188;-62
2021/12/06 00:41:03;;;;;;;26.35;17.30;;;;;;;6.12;72.47;100617.09;2073056;28;20186;-62
2021/12/06 00:42:04;;;;;;;27.10;17.90;;;;;;;4.98;71.88;100441.31;2080363;28;20177;-61
2021/12/06 00:43:04;;;;;;;25.33;16.77;;;;;;;6.12;71.92;100613.53;2080526;28;20181;-62
2021/12/06 00:44:07;;;;;;;25.87;17.00;;;;;;;6.20;72.56;100628.84;2073015;28;20650;-61
2021/12/06 00:45:08;;;;;;;24.83;16.40;;;;;;;6.19;71.47;100614.28;2072895;28;20172;-62
2021/12/06 00:46:08;;;;;;;25.95;16.92;;;;;;;6.18;71.46;100617.44;2072626;28;20550;-62
2021/12/06 00:47:09;;;;;;;26.03;16.43;;;;;;;5.29;71.45;100478.09;2072983;28;20182;-62
2021/12/06 00:48:10;;;;;;;25.93;16.43;;;;;;;6.09;71.96;100606.88;2073019;28;20174;-61
2021/12/06 00:49:11;;;;;;;26.90;17.13;;;;;;;5.58;71.91;100527.00;2072097;28;20180;-61
2021/12/06 00:50:12;;;;;;;26.23;16.92;;;;;;;6.02;72.08;100598.69;2072189;28;20969;-61
2021/12/06 00:51:15;;;;;;;25.42;16.25;;;;;;;5.99;71.88;100593.97;2072265;28;20243;-61
2021/12/06 00:52:17;;;;;;;26.08;17.08;;;;;;;5.93;72.31;100598.34;2073022;28;20177;-62
2021/12/06 00:53:17;;;;;;;26.58;17.15;;;;;;;5.92;72.39;100609.72;2073157;28;20183;-61
2021/12/06 00:54:18;;;;;;;24.30;16.50;;;;;;;5.97;72.01;100606.56;2072701;28;20187;-62
2021/12/06 00:55:21;;;;;;;27.67;16.87;;;;;;;5.98;72.26;100608.13;2072773;28;20240;-62
2021/12/06 00:56:21;;;;;;;26.42;16.33;;;;;;;6.03;71.76;100610.44;2072252;28;20634;-61
2021/12/06 00:57:22;;;;;;;23.63;15.77;;;;;;;6.09;72.12;100600.59;2072875;28;20186;-62
2021/12/06 00:58:25;;;;;;;22.93;15.53;;;;;;;6.14;71.62;100611.16;2072534;28;20684;-61
2021/12/06 00:59:26;;;;;;;22.30;15.75;;;;;;;6.12;71.73;100597.03;2072564;28;20170;-61
2021/12/06 01:00:48;;;;;;;25.10;16.27;;;;;;;6.19;71.45;100605.25;2072889;28;20181;-61
2021/12/06 01:01:51;;;;;;;24.25;16.45;;;;;;;5.64;71.60;100528.13;2072909;28;20604;-62
2021/12/06 01:02:52;;;;;;;24.92;16.02;;;;;;;6.17;71.84;100597.41;2072077;28;20551;-62
2021/12/06 01:03:53;;;;;;;24.88;16.60;;;;;;;6.16;71.51;100595.81;2072345;28;20667;-62
2021/12/06 01:04:53;;;;;;;23.27;15.40;;;;;;;6.18;71.51;100596.22;2072431;28;20669;-62
2021/12/06 01:05:54;;;;;;;24.70;15.87;;;;;;;6.22;71.32;100585.97;2072765;28;20189;-62
2021/12/06 01:06:56;;;;;;;23.02;15.98;;;;;;;5.56;71.57;100479.09;2072053;28;20590;-62
2021/12/06 01:07:56;;;;;;;25.10;16.08;;;;;;;6.16;71.84;100571.06;2072219;28;20185;-61
2021/12/06 01:08:57;;;;;;;23.37;15.43;;;;;;;6.22;71.47;100585.19;2072115;28;20268;-62
2021/12/06 01:09:58;;;;;;;24.77;15.68;;;;;;;6.29;71.60;100587.88;2072902;28;20258;-61
2021/12/06 01:10:59;;;;;;;23.67;16.00;;;;;;;6.12;71.61;100570.31;2072882;28;20185;-62
2021/12/06 01:12:00;;;;;;;25.08;16.52;;;;;;;5.48;71.23;100452.88;2072884;28;20212;-62
2021/12/06 01:13:02;;;;;;;23.47;15.17;;;;;;;6.30;71.42;100592.22;2073078;28;20200;-62
2021/12/06 01:14:03;;;;;;;24.45;16.02;;;;;;;5.59;70.88;100470.06;2072689;28;20726;-62
2021/12/06 01:15:05;;;;;;;23.63;15.40;;;;;;;6.34;71.12;100601.22;2072698;28;20558;-62
2021/12/06 01:16:09;;;;;;;26.98;15.43;;;;;;;6.33;70.75;100592.19;2072233;28;20350;-62
2021/12/06 01:17:09;;;;;;;24.35;15.52;;;;;;;6.35;71.41;100576.03;2072767;28;20299;-61
2021/12/06 01:18:14;;;;;;;23.20;15.10;;;;;;;6.33;70.81;100583.94;2072748;28;20207;-61
2021/12/06 01:19:15;;;;;;;22.75;14.55;;;;;;;5.65;71.45;100488.47;2072146;28;20181;-61
2021/12/06 01:20:21;;;;;;;23.40;15.30;;;;;;;6.35;71.45;100600.03;2072771;28;20701;-61
2021/12/06 01:21:37;;;;;;;22.33;14.80;;;;;;;6.16;71.01;100573.81;2072843;28;20176;-62
2021/12/06 01:24:09;;;;;;;20.83;14.25;;;;;;;6.29;71.45;100610.69;2063509;28;20711;-61
2021/12/06 01:25:25;;;;;;;23.38;14.32;;;;;;;6.25;71.51;100607.16;2072618;28;20157;-62
2021/12/06 01:27:49;;;;;;;21.58;14.23;;;;;;;6.25;71.36;100601.66;2073143;28;20646;-62
2021/12/06 01:30:16;;;;;;;20.70;14.18;;;;;;;6.31;71.23;100589.03;2072725;28;20231;-62
2021/12/06 01:32:05;;;;;;;23.00;13.95;;;;;;;5.42;71.12;100455.25;2072758;28;20156;-62
2021/12/06 01:40:07;;;;;;;26.40;15.32;;;;;;;6.11;71.47;100581.72;2072785;28;20165;-61
2021/12/06 01:41:08;;;;;;;24.02;15.82;;;;;;;6.10;71.31;100580.16;2072660;28;20180;-62
2021/12/06 01:42:09;;;;;;;23.93;15.63;;;;;;;6.14;71.27;100595.44;2072651;28;20201;-61
2021/12/06 01:43:09;;;;;;;21.70;15.00;;;;;;;5.48;71.63;100492.09;2072687;28;20648;-62
2021/12/06 01:44:14;;;;;;;24.40;14.83;;;;;;;6.13;71.78;100573.84;2079867;28;20605;-61
2021/12/06 01:45:15;;;;;;;24.00;15.13;;;;;;;5.05;71.31;100402.06;2079685;28;20195;-62
2021/12/06 01:46:16;;;;;;;21.47;14.93;;;;;;;5.76;71.39;100524.16;2071917;28;20211;-62
2021/12/06 01:47:29;;;;;;;25.37;15.90;;;;;;;6.06;71.26;100555.41;2072694;28;20180;-62
2021/12/06 01:48:29;;;;;;;23.35;14.82;;;;;;;5.86;71.72;100524.13;2072174;28;20169;-62
2021/12/06 01:49:40;;;;;;;23.93;15.57;;;;;;;5.98;72.04;100559.41;2072179;28;20187;-62
2021/12/06 01:50:41;;;;;;;21.80;14.93;;;;;;;5.97;72.42;100552.34;2072659;28;20200;-62
2021/12/06 01:51:43;;;;;;;22.33;14.40;;;;;;;5.60;71.94;100505.38;2072592;28;20235;-61
2021/12/06 01:52:49;;;;;;;22.35;15.00;;;;;;;6.05;72.20;100562.09;2072519;28;20188;-62
2021/12/06 01:53:50;;;;;;;22.95;15.35;;;;;;;6.03;72.00;100542.47;2072455;28;20661;-62
2021/12/06 01:54:51;;;;;;;23.43;14.97;;;;;;;6.11;72.09;100563.22;2072341;28;20569;-61
2021/12/06 01:55:52;;;;;;;21.70;15.00;;;;;;;6.13;71.86;100555.38;2079636;28;20248;-61
2021/12/06 01:56:53;;;;;;;24.07;14.87;;;;;;;6.16;72.23;100534.53;2079718;28;20659;-61
2021/12/06 01:57:55;;;;;;;24.90;14.90;;;;;;;6.04;71.56;100530.28;2072564;28;20672;-61
2021/12/06 01:58:56;;;;;;;23.58;14.60;;;;;;;6.01;71.80;100536.56;2071707;28;20459;-62
2021/12/06 01:59:57;;;;;;;21.33;14.77;;;;;;;5.71;71.69;100494.34;2072534;28;20658;-61
2021/12/06 02:00:58;;;;;;;22.70;14.65;;;;;;;5.51;71.50;100479.53;2072498;28;20362;-62
2021/12/06 02:01:59;;;;;;;22.03;14.83;;;;;;;6.12;71.61;100547.53;2072574;28;20219;-62
2021/12/06 02:02:59;;;;;;;22.30;14.70;;;;;;;6.03;72.20;100544.44;2072501;28;20188;-62
2021/12/06 02:04:01;;;;;;;22.97;15.03;;;;;;;6.15;71.80;100563.22;2072445;28;20172;-61
2021/12/06 02:05:02;;;;;;;22.27;14.85;;;;;;;5.65;71.98;100490.44;2072361;28;20192;-62
2021/12/06 02:06:03;;;;;;;19.87;14.37;;;;;;;6.21;71.91;100556.09;2071852;28;20190;-61
2021/12/06 02:07:06;;;;;;;21.50;14.40;;;;;;;6.13;71.54;100554.56;2072516;28;20585;-61
2021/12/06 02:08:08;;;;;;;23.23;14.27;;;;;;;6.26;71.60;100558.44;2072522;28;20659;-61
2021/12/06 02:09:11;;;;;;;21.13;14.40;;;;;;;6.26;71.39;100545.44;2071690;28;20177;-62
2021/12/06 02:10:12;;;;;;;21.35;14.30;;;;;;;6.24;71.44;100552.53;2072590;28;20365;-61
2021/12/06 02:11:13;;;;;;;19.53;13.77;;;;;;;6.21;71.58;100543.13;2072699;28;20183;-61
2021/12/06 02:12:14;;;;;;;22.13;15.03;;;;;;;6.26;71.58;100544.66;2072421;28;20568;-62
2021/12/06 02:13:15;;;;;;;22.88;15.10;;;;;;;5.99;71.57;100521.66;2072483;28;20179;-62
2021/12/06 02:14:32;;;;;;;21.83;14.27;;;;;;;6.24;71.54;100560.78;2072245;28;20700;-62
2021/12/06 02:16:55;;;;;;;24.92;15.05;;;;;;;5.48;71.55;100411.63;2071930;28;20173;-61
2021/12/06 02:18:07;;;;;;;20.33;14.15;;;;;;;5.36;71.07;100412.09;2072587;28;20176;-62
2021/12/06 02:19:09;;;;;;;20.90;13.95;;;;;;;6.26;71.73;100553.69;2071857;28;20161;-61
2021/12/06 02:20:20;;;;;;;21.55;14.45;;;;;;;6.28;71.47;100553.28;2071743;28;20190;-62
2021/12/06 02:21:32;;;;;;;20.70;13.70;;;;;;;6.22;71.45;100544.69;2071909;28;20696;-62
2021/12/06 02:22:36;;;;;;;21.13;13.85;;;;;;;6.11;71.51;100538.47;2072343;28;20168;-61
2021/12/06 02:23:37;;;;;;;18.92;13.88;;;;;;;6.07;71.66;100526.72;2072567;28;20646;-62
2021/12/06 02:24:38;;;;;;;21.40;13.57;;;;;;;5.69;71.52;100466.47;2072214;28;20664;-61
2021/12/06 02:25:39;;;;;;;20.95;13.55;;;;;;;5.27;71.47;100401.56;2071718;28;20182;-62
2021/12/06 02:26:41;;;;;;;22.83;14.40;;;;;;;6.10;71.55;100536.91;2071265;28;20226;-61
2021/12/06 02:27:43;;;;;;;20.05;13.10;;;;;;;6.11;71.39;100530.22;2072419;28;20181;-62
2021/12/06 02:28:44;;;;;;;20.38;13.52;;;;;;;6.14;71.50;100523.91;2071631;28;20616;-62
2021/12/06 02:29:47;;;;;;;19.13;13.43;;;;;;;6.19;71.40;100522.69;2072178;28;20611;-62
2021/12/06 02:30:48;;;;;;;21.15;13.65;;;;;;;6.20;71.05;100524.28;2072541;28;20182;-62
2021/12/06 02:31:48;;;;;;;19.37;13.43;;;;;;;5.94;71.71;100487.13;2072499;28;20189;-62
2021/12/06 02:32:50;;;;;;;20.20;13.07;;;;;;;6.25;71.10;100532.09;2072498;28;20621;-62
2021/12/06 02:33:52;;;;;;;18.83;12.30;;;;;;;6.19;71.25;100506.19;2072404;28;20207;-61
2021/12/06 02:34:55;;;;;;;20.35;13.55;;;;;;;6.24;71.59;100511.25;2072216;28;20181;-61
2021/12/06 02:35:56;;;;;;;19.77;12.85;;;;;;;6.21;71.54;100503.81;2072010;28;20274;-62
2021/12/06 02:36:58;;;;;;;19.73;13.57;;;;;;;5.59;70.91;100426.84;2072151;28;20176;-62
2021/12/06 02:37:58;;;;;;;18.58;12.18;;;;;;;5.49;70.77;100410.44;2072409;28;20485;-62
2021/12/06 02:39:00;;;;;;;19.17;12.90;;;;;;;6.29;70.51;100532.84;2073308;28;20208;-62
2021/12/06 02:40:08;;;;;;;19.10;12.55;;;;;;;6.26;70.92;100534.44;2073907;28;20170;-62
2021/12/06 02:41:09;;;;;;;18.77;12.32;;;;;;;6.29;70.98;100532.84;2073985;28;20797;-62
2021/12/06 02:42:14;;;;;;;19.70;12.87;;;;;;;5.91;71.36;100498.16;2081348;28;20725;-61
2021/12/06 02:43:15;;;;;;;19.25;13.13;;;;;;;6.25;70.93;100532.88;2081030;28;20172;-62
2021/12/06 02:44:16;;;;;;;18.37;11.77;;;;;;;6.26;71.10;100539.16;2073124;28;20196;-61
2021/12/06 02:45:24;;;;;;;19.58;13.02;;;;;;;5.68;70.75;100440.13;2073447;28;20188;-62
2021/12/06 02:46:25;;;;;;;19.95;12.10;;;;;;;6.19;71.30;100536.44;2073334;28;20168;-62
2021/12/06 02:47:25;;;;;;;19.93;13.17;;;;;;;6.20;71.08;100538.81;2074039;28;20227;-62
2021/12/06 02:48:26;;;;;;;20.50;13.13;;;;;;;6.15;71.24;100532.97;2073434;28;20213;-62
2021/12/06 02:49:28;;;;;;;19.47;12.83;;;;;;;6.17;70.61;100520.38;2073435;28;20189;-61
2021/12/06 02:50:33;;;;;;;20.13;12.23;;;;;;;5.93;71.13;100480.06;2073813;28;20180;-62
2021/12/06 02:51:34;;;;;;;19.25;11.93;;;;;;;6.18;70.75;100516.44;2074122;28;20173;-61
2021/12/06 02:52:36;;;;;;;19.50;12.52;;;;;;;6.16;70.76;100521.53;2073790;28;20185;-61
2021/12/06 02:53:37;;;;;;;18.08;12.10;;;;;;;6.15;71.06;100517.22;2073967;28;20212;-62
2021/12/06 02:54:40;;;;;;;18.02;12.18;;;;;;;6.15;71.29;100530.97;2073732;28;20193;-61
2021/12/06 02:55:43;;;;;;;17.90;12.02;;;;;;;5.24;71.29;100399.59;2073464;28;20235;-62
2021/12/06 02:56:53;;;;;;;21.40;12.88;;;;;;;6.17;71.25;100527.84;2073222;28;20180;-62
2021/12/06 02:57:57;;;;;;;19.27;12.30;;;;;;;6.08;71.41;100525.53;2073874;28;20531;-62
2021/12/06 02:59:05;;;;;;;19.08;12.48;;;;;;;5.98;70.93;100515.41;2073093;28;20251;-62
2021/12/06 03:00:09;;;;;;;19.45;12.18;;;;;;;5.98;71.32;100523.66;2073867;28;20195;-62
2021/12/06 03:01:22;;;;;;;18.38;12.23;;;;;;;5.97;71.54;100508.34;2073870;28;20177;-62
2021/12/06 03:02:22;;;;;;;20.05;12.18;;;;;;;5.61;71.11;100459.44;2073640;28;20168;-61
2021/12/06 03:03:23;;;;;;;16.90;11.67;;;;;;;5.92;71.63;100499.72;2073973;28;20192;-62
2021/12/06 03:04:24;;;;;;;19.70;11.90;;;;;;;5.84;71.98;100495.47;2073373;28;20707;-62
2021/12/06 03:05:24;;;;;;;18.63;12.13;;;;;;;5.73;72.02;100495.50;2073854;28;20196;-61
2021/12/06 03:06:25;;;;;;;19.57;12.03;;;;;;;5.54;72.23;100471.25;2073291;28;20173;-62
2021/12/06 03:07:28;;;;;;;19.20;12.00;;;;;;;5.75;72.36;100506.84;2073723;28;20182;-62
2021/12/06 03:08:47;;;;;;;20.60;12.40;;;;;;;5.76;72.14;100515.91;2073365;28;20191;-61
2021/12/06 03:09:52;;;;;;;19.00;11.95;;;;;;;5.16;71.96;100425.56;2073596;28;20176;-62
2021/12/06 03:10:52;;;;;;;18.48;12.30;;;;;;;5.78;71.74;100513.53;2073771;28;20184;-62
2021/12/06 03:12:01;;;;;;;18.53;12.07;;;;;;;5.88;71.78;100521.75;2073759;28;20545;-62
2021/12/06 03:13:03;;;;;;;17.95;11.52;;;;;;;5.89;72.03;100525.28;2073748;28;20252;-62
2021/12/06 03:14:06;;;;;;;19.77;12.23;;;;;;;4.81;71.63;100356.28;2073547;28;20173;-62
2021/12/06 03:15:07;;;;;;;17.95;11.25;;;;;;;5.86;71.51;100517.84;2073879;28;20176;-62
2021/12/06 03:16:08;;;;;;;18.73;12.10;;;;;;;6.02;71.87;100532.66;2080670;28;20291;-61
2021/12/06 03:17:11;;;;;;;16.73;11.13;;;;;;;5.85;71.95;100500.53;2081102;28;20267;-62
2021/12/06 03:18:11;;;;;;;16.15;10.82;;;;;;;6.00;71.45;100535.00;2073677;28;20487;-61
2021/12/06 03:19:12;;;;;;;19.43;11.70;;;;;;;6.00;70.92;100539.75;2072911;28;20215;-62
2021/12/06 03:20:14;;;;;;;18.40;11.33;;;;;;;6.04;71.68;100554.25;2073674;28;20250;-61
2021/12/06 03:21:16;;;;;;;16.38;10.48;;;;;;;5.18;71.56;100422.41;2073684;28;20182;-61
2021/12/06 03:22:17;;;;;;;17.67;11.30;;;;;;;5.75;71.57;100504.09;2073712;28;20613;-61
2021/12/06 03:23:17;;;;;;;17.17;11.27;;;;;;;6.17;71.16;100566.34;2073122;28;20185;-62
2021/12/06 03:24:18;;;;;;;18.67;11.10;;;;;;;6.16;71.25;100562.81;2072867;28;20183;-61
2021/12/06 03:25:19;;;;;;;18.17;11.57;;;;;;;6.18;70.64;100573.41;2073471;28;20186;-62
2021/12/06 03:26:20;;;;;;;16.13;10.57;;;;;;;6.19;70.30;100577.72;2073040;28;20205;-62
2021/12/06 03:27:20;;;;;;;18.43;11.20;;;;;;;5.36;70.24;100450.56;2073524;28;20271;-63
2021/12/06 03:28:21;;;;;;;16.90;10.63;;;;;;;6.25;70.53;100587.91;2073260;28;20185;-62
2021/12/06 03:29:23;;;;;;;16.57;9.97;;;;;;;6.20;70.28;100582.81;2073367;28;20214;-62
2021/12/06 03:30:23;;;;;;;16.33;10.93;;;;;;;5.66;70.46;100500.25;2073450;28;20272;-61
2021/12/06 03:31:24;;;;;;;16.53;11.10;;;;;;;5.91;70.32;100536.66;2073758;28;20189;-62
2021/12/06 03:32:25;;;;;;;18.25;10.82;;;;;;;5.41;70.64;100456.44;2073344;28;20268;-62
2021/12/06 03:33:25;;;;;;;15.73;11.00;;;;;;;6.04;70.88;100560.53;2073755;28;20178;-61
2021/12/06 03:34:26;;;;;;;16.47;10.93;;;;;;;5.53;71.54;100477.94;2073259;28;20178;-62
2021/12/06 03:35:27;;;;;;;17.13;10.87;;;;;;;5.88;71.07;100534.69;2073701;28;20665;-62
2021/12/06 03:36:31;;;;;;;19.88;12.30;;;;;;;5.91;71.55;100553.97;2080371;28;20209;-61
2021/12/06 03:37:32;;;;;;;18.25;11.98;;;;;;;5.94;71.70;100564.13;2080599;28;20173;-62
2021/12/06 03:38:33;;;;;;;17.73;11.30;;;;;;;5.95;71.87;100562.19;2073185;28;20181;-62
2021/12/06 03:39:40;;;;;;;18.70;11.98;;;;;;;5.99;71.37;100571.16;2073094;28;20182;-62
2021/12/06 03:40:40;;;;;;;18.65;10.93;;;;;;;6.02;72.00;100579.44;2073630;28;20229;-62
2021/12/06 03:41:41;;;;;;;17.53;11.40;;;;;;;5.07;71.36;100424.44;2073496;28;20260;-62
2021/12/06 03:42:41;;;;;;;17.93;11.67;;;;;;;5.89;71.46;100552.78;2073561;28;20182;-62
2021/12/06 03:43:43;;;;;;;15.77;10.27;;;;;;;6.11;71.38;100607.25;2073495;28;20211;-62
2021/12/06 03:44:44;;;;;;;17.42;11.18;;;;;;;6.12;71.77;100583.28;2073306;28;20537;-62
2021/12/06 03:45:45;;;;;;;17.75;10.95;;;;;;;6.09;71.56;100593.13;2073584;28;20186;-62
2021/12/06 03:46:56;;;;;;;17.07;10.53;;;;;;;5.28;71.39;100460.81;2073066;28;20174;-62
2021/12/06 03:47:56;;;;;;;19.27;10.60;;;;;;;6.10;71.62;100583.69;2073216;28;20624;-62
2021/12/06 03:48:57;;;;;;;18.40;11.23;;;;;;;6.10;71.72;100580.94;2072417;28;20614;-62
2021/12/06 03:49:59;;;;;;;18.03;11.13;;;;;;;6.13;71.50;100584.84;2073455;28;20186;-62
2021/12/06 03:51:00;;;;;;;16.20;10.85;;;;;;;6.13;71.35;100588.38;2073547;28;20578;-62
2021/12/06 03:52:01;;;;;;;18.67;10.75;;;;;;;5.79;71.17;100545.34;2073404;28;20260;-63
2021/12/06 03:53:02;;;;;;;18.47;11.13;;;;;;;6.17;71.35;100580.91;2073481;28;20178;-62
2021/12/06 03:54:03;;;;;;;19.77;11.40;;;;;;;6.14;71.02;100570.69;2073213;28;20215;-63
2021/12/06 03:55:06;;;;;;;18.03;11.17;;;;;;;6.24;70.93;100580.03;2073204;28;20647;-62
2021/12/06 03:56:07;;;;;;;18.05;11.38;;;;;;;6.24;70.34;100582.81;2072754;28;20960;-62
2021/12/06 03:57:07;;;;;;;17.92;11.10;;;;;;;6.24;70.26;100583.59;2073343;28;20703;-62
2021/12/06 03:58:08;;;;;;;19.03;11.57;;;;;;;6.15;70.46;100565.97;2073272;28;20194;-63
2021/12/06 03:59:09;;;;;;;19.53;12.00;;;;;;;6.27;70.29;100591.06;2072513;28;20613;-63
2021/12/06 04:00:10;;;;;;;18.07;11.20;;;;;;;6.29;70.50;100591.41;2073384;28;20198;-62
2021/12/06 04:01:11;;;;;;;16.95;10.48;;;;;;;6.32;69.77;100576.88;2073174;28;20504;-62
2021/12/06 04:02:12;;;;;;;15.47;10.70;;;;;;;6.31;69.51;100580.00;2073339;28;20197;-62
2021/12/06 04:03:13;;;;;;;17.67;10.80;;;;;;;5.33;69.72;100423.91;2073371;28;20280;-62
2021/12/06 04:04:15;;;;;;;17.10;10.70;;;;;;;6.30;70.38;100586.72;2073315;28;20215;-63
2021/12/06 04:05:16;;;;;;;16.63;9.93;;;;;;;6.31;70.88;100572.53;2072603;28;20193;-63
2021/12/06 04:06:16;;;;;;;16.67;11.00;;;;;;;6.31;70.25;100572.53;2072210;28;20185;-63
2021/12/06 04:07:17;;;;;;;16.40;10.67;;;;;;;6.26;70.68;100564.69;2073370;28;20240;-62
2021/12/06 04:08:18;;;;;;;15.70;10.60;;;;;;;6.32;69.88;100570.56;2072842;28;20618;-62
2021/12/06 04:09:18;;;;;;;17.10;10.93;;;;;;;6.29;70.20;100560.34;2072749;28;20189;-62
2021/12/06 04:10:19;;;;;;;15.27;10.37;;;;;;;6.14;70.18;100556.13;2072544;28;20187;-62
2021/12/06 04:11:20;;;;;;;15.73;10.03;;;;;;;6.03;70.15;100550.72;2072776;28;20198;-62
2021/12/06 04:12:21;;;;;;;14.70;9.87;;;;;;;5.63;70.35;100484.56;2073268;28;20183;-62
2021/12/06 04:13:22;;;;;;;18.37;10.00;;;;;;;5.35;70.68;100427.81;2073369;28;20196;-62
2021/12/06 04:14:22;;;;;;;17.38;11.05;;;;;;;6.11;70.70;100554.22;2072995;28;20185;-63
2021/12/06 04:15:23;;;;;;;15.30;10.30;;;;;;;5.99;71.52;100546.41;2073394;28;20188;-63
2021/12/06 04:16:24;;;;;;;16.93;10.70;;;;;;;5.80;71.17;100503.72;2072648;28;20666;-63
2021/12/06 04:17:25;;;;;;;17.70;11.17;;;;;;;6.09;71.12;100567.56;2073452;28;20184;-62
2021/12/06 04:18:25;;;;;;;16.43;10.60;;;;;;;6.07;70.79;100583.72;2072841;28;20196;-63
2021/12/06 04:19:26;;;;;;;18.97;10.53;;;;;;;6.11;71.95;100574.22;2072885;28;20243;-62
2021/12/06 04:20:27;;;;;;;15.20;10.43;;;;;;;6.15;71.83;100575.00;2073085;28;20658;-63
2021/12/06 04:21:27;;;;;;;17.05;10.82;;;;;;;5.51;71.50;100468.53;2073270;28;20220;-63
2021/12/06 04:22:28;;;;;;;20.60;11.80;;;;;;;6.17;71.59;100575.41;2072962;28;20185;-63
2021/12/06 04:23:29;;;;;;;17.70;11.43;;;;;;;6.17;71.18;100567.16;2073307;28;20269;-62
2021/12/06 04:24:30;;;;;;;19.07;12.03;;;;;;;5.56;70.84;100468.13;2072918;28;20189;-63
2021/12/06 04:25:30;;;;;;;20.13;11.90;;;;;;;6.22;71.20;100566.72;2073407;28;20272;-63
2021/12/06 04:26:31;;;;;;;18.13;11.47;;;;;;;6.05;71.15;100531.84;2072689;28;20176;-62
2021/12/06 04:27:31;;;;;;;18.47;11.77;;;;;;;6.22;71.08;100549.41;2073290;28;20219;-62
2021/12/06 04:28:34;;;;;;;18.00;11.53;;;;;;;6.15;70.99;100541.97;2072346;28;20193;-62
2021/12/06 04:29:35;;;;;;;18.80;11.25;;;;;;;5.97;71.45;100505.59;2072683;28;20564;-62
2021/12/06 04:30:38;;;;;;;20.07;12.20;;;;;;;6.21;71.15;100545.09;2073158;28;20209;-62
2021/12/06 04:31:51;;;;;;;17.60;11.43;;;;;;;6.20;71.50;100549.81;2073219;28;20417;-62
2021/12/06 04:32:54;;;;;;;18.23;11.57;;;;;;;6.13;71.33;100536.13;2073204;28;20178;-62
2021/12/06 04:33:55;;;;;;;18.75;12.02;;;;;;;6.18;71.14;100548.66;2073198;28;20181;-62
2021/12/06 04:34:55;;;;;;;15.80;10.83;;;;;;;6.17;71.52;100539.63;2072870;28;20685;-62
2021/12/06 04:35:56;;;;;;;19.13;11.73;;;;;;;6.15;71.34;100538.47;2072755;28;20178;-62
2021/12/06 04:36:57;;;;;;;16.57;10.43;;;;;;;6.13;71.41;100538.06;2072989;28;20174;-62
2021/12/06 04:37:58;;;;;;;19.10;12.27;;;;;;;5.77;71.62;100501.75;2073179;28;20182;-62
2021/12/06 04:38:59;;;;;;;16.73;11.35;;;;;;;6.21;71.80;100536.84;2072171;28;20655;-62
2021/12/06 04:40:00;;;;;;;19.63;11.23;;;;;;;6.22;71.52;100566.72;2073088;28;20607;-62
2021/12/06 04:41:01;;;;;;;17.30;10.47;;;;;;;6.25;71.92;100535.63;2073187;28;20174;-62
2021/12/06 04:42:02;;;;;;;16.95;10.70;;;;;;;5.10;71.63;100358.50;2072872;28;20184;-62
2021/12/06 04:43:03;;;;;;;17.10;11.00;;;;;;;5.97;71.52;100497.34;2073113;28;20185;-62
2021/12/06 04:44:04;;;;;;;15.32;10.82;;;;;;;6.19;71.86;100528.19;2072688;28;20181;-62
2021/12/06 04:45:06;;;;;;;17.98;10.88;;;;;;;6.20;71.94;100518.78;2073100;28;20213;-62
2021/12/06 04:46:07;;;;;;;16.52;10.77;;;;;;;6.21;71.35;100518.34;2072461;28;20284;-62
2021/12/06 04:47:07;;;;;;;16.17;10.37;;;;;;;6.24;71.75;100525.00;2073154;28;20216;-63
2021/12/06 04:48:09;;;;;;;16.03;10.33;;;;;;;5.77;71.65;100437.72;2072999;28;20185;-62
2021/12/06 04:49:09;;;;;;;16.00;10.32;;;;;;;6.32;71.29;100507.28;2072149;28;20185;-62
2021/12/06 04:50:12;;;;;;;15.67;10.17;;;;;;;6.34;71.35;100502.94;2072890;28;20184;-62
2021/12/06 04:51:13;;;;;;;17.95;10.18;;;;;;;5.75;70.73;100396.13;2073063;28;20174;-62
2021/12/06 04:52:16;;;;;;;13.80;9.60;;;;;;;6.45;71.04;100511.06;2072931;28;20205;-62
2021/12/06 04:53:21;;;;;;;17.30;11.15;;;;;;;6.46;70.90;100509.91;2073001;28;20261;-62
2021/12/06 04:54:26;;;;;;;17.25;11.13;;;;;;;6.47;70.57;100519.72;2072241;28;20185;-62
2021/12/06 04:55:36;;;;;;;16.75;10.50;;;;;;;6.49;70.49;100518.13;2072355;28;20233;-62
2021/12/06 04:56:41;;;;;;;16.15;10.43;;;;;;;6.51;70.51;100520.47;2072265;28;20197;-62
2021/12/06 04:57:44;;;;;;;16.05;10.15;;;;;;;6.49;70.51;100526.38;2072744;28;20261;-62
2021/12/06 04:59:10;;;;;;;16.42;10.05;;;;;;;6.50;70.09;100518.88;2071834;28;20247;-62
2021/12/06 05:00:33;;;;;;;16.45;10.00;;;;;;;6.41;70.65;100518.59;2071609;28;20181;-62
2021/12/06 05:01:35;;;;;;;15.52;9.88;;;;;;;6.39;70.75;100516.25;2067320;28;20185;-63